Time;durP1;ratioP1;P1;durP2;ratioP2;P2;SDS_P1;SDS_P2;PMS_P1;PMS_P2;Temp;Humidity;BMP_temperature;BMP_pressure;BME280_temperature;BME280_humidity;BME280_pressure;Samples;Min_cycle;Max_cycle;Signal;HPM_P1;HPM_P2
2023/03/12 00:01:16;;;;;;;5.33;3.20;;;;;;;1.10;98.58;100993.38;5068782;28;20048;-64
2023/03/12 00:03:41;;;;;;;5.80;3.47;;;;;;;1.12;98.99;100991.81;5067688;28;20028;-64
2023/03/12 00:06:07;;;;;;;4.80;3.20;;;;;;;1.13;99.48;100993.63;5068108;28;20629;-64
2023/03/12 00:08:32;;;;;;;7.43;4.00;;;;;;;1.13;99.90;100983.41;5067061;28;20032;-64
2023/03/12 00:10:58;;;;;;;7.53;3.83;;;;;;;1.14;99.53;100989.38;5067955;28;20465;-64
2023/03/12 00:13:23;;;;;;;5.43;3.20;;;;;;;1.15;99.42;100986.94;5065865;28;20024;-64
2023/03/12 00:15:48;;;;;;;8.30;3.50;;;;;;;1.15;99.04;100986.06;5057244;28;20020;-64
2023/03/12 00:18:13;;;;;;;4.30;3.20;;;;;;;1.15;99.50;100983.50;5053463;28;20511;-64
2023/03/12 00:20:39;;;;;;;7.87;3.70;;;;;;;1.14;100.00;100985.16;5047758;28;20461;-64
2023/03/12 00:23:04;;;;;;;5.17;2.90;;;;;;;1.15;100.00;100986.94;5048385;28;20100;-64
2023/03/12 00:25:30;;;;;;;5.33;3.50;;;;;;;1.13;99.91;100982.50;5048418;28;20050;-64
2023/03/12 00:27:55;;;;;;;9.33;3.77;;;;;;;1.14;99.50;100972.41;5061686;28;20032;-64
2023/03/12 00:30:20;;;;;;;6.20;3.67;;;;;;;1.12;100.00;100965.38;5049136;28;20139;-64
2023/03/12 00:32:46;;;;;;;6.80;2.77;;;;;;;1.10;100.00;100962.72;5047813;28;20025;-64
2023/03/12 00:35:11;;;;;;;5.03;3.40;;;;;;;1.08;100.00;100957.50;5048242;28;20389;-63
2023/03/12 00:37:37;;;;;;;6.90;3.37;;;;;;;1.07;100.00;100958.31;5048742;28;20147;-64
2023/03/12 00:40:04;;;;;;;4.40;3.53;;;;;;;1.08;100.00;100956.63;5048584;28;20115;-64
2023/03/12 00:42:30;;;;;;;7.07;3.37;;;;;;;1.08;100.00;100954.97;5048839;28;20027;-64
2023/03/12 00:44:55;;;;;;;8.33;3.03;;;;;;;1.07;100.00;100954.84;5048090;28;20025;-64
2023/03/12 00:47:21;;;;;;;4.93;2.83;;;;;;;1.06;100.00;100958.19;5061787;28;20428;-63
2023/03/12 00:49:46;;;;;;;6.90;3.13;;;;;;;1.06;100.00;100953.09;5056246;28;20032;-64
2023/03/12 00:52:11;;;;;;;5.77;3.30;;;;;;;1.07;100.00;100947.19;5067531;28;20049;-63
2023/03/12 00:54:37;;;;;;;6.07;2.93;;;;;;;1.07;100.00;100947.19;5067402;28;20039;-64
2023/03/12 00:57:02;;;;;;;5.40;2.80;;;;;;;1.06;100.00;100948.84;5066732;28;20111;-64
2023/03/12 00:59:27;;;;;;;7.10;3.20;;;;;;;1.07;100.00;100936.97;5067514;28;20021;-64
2023/03/12 01:01:53;;;;;;;5.60;2.93;;;;;;;1.07;100.00;100936.97;5067180;28;20103;-64
2023/03/12 01:04:18;;;;;;;5.67;3.20;;;;;;;1.06;100.00;100925.00;5068030;28;20488;-64
2023/03/12 01:06:44;;;;;;;5.83;2.93;;;;;;;1.08;100.00;100936.19;5066495;28;20028;-64
2023/03/12 01:09:09;;;;;;;6.47;3.37;;;;;;;1.10;100.00;100927.00;5067791;28;20027;-64
2023/03/12 01:11:36;;;;;;;5.20;3.03;;;;;;;1.13;100.00;100926.34;5067489;28;20035;-64
2023/03/12 01:14:03;;;;;;;8.17;3.30;;;;;;;1.14;100.00;100917.88;5061190;28;20013;-63
2023/03/12 01:16:29;;;;;;;5.07;3.17;;;;;;;1.14;100.00;100917.88;5048191;28;20021;-64
2023/03/12 01:18:59;;;;;;;7.53;3.97;;;;;;;1.12;100.00;100912.66;5048067;28;20029;-64
2023/03/12 01:21:26;;;;;;;5.30;3.20;;;;;;;1.12;100.00;100911.78;5047763;28;20108;-64
2023/03/12 01:23:51;;;;;;;5.23;3.47;;;;;;;1.13;100.00;100911.91;5046988;28;20036;-64
2023/03/12 01:26:17;;;;;;;7.17;3.00;;;;;;;1.13;100.00;100911.91;5047821;28;20523;-64
2023/03/12 01:28:43;;;;;;;5.30;3.30;;;;;;;1.12;100.00;100905.00;5055284;28;20477;-64
2023/03/12 01:31:13;;;;;;;6.87;3.40;;;;;;;1.12;100.00;100915.22;5067534;28;20031;-64
2023/03/12 01:33:39;;;;;;;6.00;3.10;;;;;;;1.15;99.81;100919.69;5067668;28;20020;-64
2023/03/12 01:36:14;;;;;;;6.70;3.03;;;;;;;1.16;100.00;100921.44;5067030;28;20039;-64
2023/03/12 01:38:39;;;;;;;4.40;3.07;;;;;;;1.18;100.00;100918.22;5065440;28;20028;-64
2023/03/12 01:41:04;;;;;;;12.03;3.57;;;;;;;1.17;100.00;100913.88;5067124;28;20486;-64
2023/03/12 01:43:33;;;;;;;5.47;3.77;;;;;;;1.21;99.51;100896.25;5058405;28;20756;-64
2023/03/12 01:46:20;;;;;;;4.80;3.50;;;;;;;1.20;99.75;100900.47;5063673;28;20016;-64
2023/03/12 01:49:24;;;;;;;6.10;3.30;;;;;;;1.21;99.98;100907.34;5054714;28;20447;-64
2023/03/12 01:52:04;;;;;;;4.30;3.00;;;;;;;1.21;99.84;100898.81;5047806;28;20044;-63
2023/03/12 01:54:40;;;;;;;5.67;3.47;;;;;;;1.19;100.00;100881.69;5041524;28;20051;-64
2023/03/12 01:57:12;;;;;;;7.40;3.60;;;;;;;1.21;100.00;100868.16;5066235;28;20121;-64
2023/03/12 01:59:50;;;;;;;6.33;3.47;;;;;;;1.22;99.91;100875.94;5055020;28;20070;-64
2023/03/12 02:02:18;;;;;;;5.17;3.03;;;;;;;1.22;99.17;100873.38;5066555;28;20582;-65
2023/03/12 02:04:46;;;;;;;5.70;3.53;;;;;;;1.24;99.31;100883.69;5066587;28;20056;-64
2023/03/12 02:07:14;;;;;;;7.20;3.93;;;;;;;1.23;99.55;100872.59;5056179;28;20117;-64
2023/03/12 02:09:43;;;;;;;6.17;3.53;;;;;;;1.23;99.67;100870.03;5069259;28;20063;-65
2023/03/12 02:12:08;;;;;;;5.73;3.33;;;;;;;1.24;100.00;100866.69;5069967;28;20047;-64
2023/03/12 02:14:35;;;;;;;4.30;3.07;;;;;;;1.23;99.64;100862.38;5071270;28;20139;-64
2023/03/12 02:17:00;;;;;;;6.83;3.57;;;;;;;1.24;100.00;100864.13;5052536;28;20091;-65
2023/03/12 02:20:06;;;;;;;5.43;3.07;;;;;;;1.24;100.00;100855.63;5050770;28;20028;-65
2023/03/12 02:22:34;;;;;;;7.83;3.37;;;;;;;1.25;100.00;100857.38;5041811;28;20031;-65
2023/03/12 02:25:02;;;;;;;6.40;3.97;;;;;;;1.25;100.00;100849.72;5051451;28;20029;-64
2023/03/12 02:27:30;;;;;;;5.67;3.30;;;;;;;1.23;100.00;100847.06;5050889;28;20041;-65
2023/03/12 02:29:55;;;;;;;4.73;3.03;;;;;;;1.25;100.00;100844.59;5051536;28;20107;-64
2023/03/12 02:32:25;;;;;;;6.33;3.50;;;;;;;1.23;100.00;100841.06;5051539;28;20111;-64
2023/03/12 02:34:50;;;;;;;7.20;3.33;;;;;;;1.21;100.00;100838.41;5051327;28;20029;-64
2023/03/12 02:37:17;;;;;;;7.07;3.47;;;;;;;1.22;100.00;100839.28;5051438;28;20067;-64
2023/03/12 02:39:48;;;;;;;7.20;3.37;;;;;;;1.22;100.00;100834.19;5051806;28;20533;-64
2023/03/12 02:42:14;;;;;;;6.70;3.58;;;;;;;1.22;100.00;100834.19;5050669;28;20100;-65
2023/03/12 02:44:39;;;;;;;5.47;3.77;;;;;;;1.24;100.00;100847.94;5050931;28;20116;-64
2023/03/12 02:47:05;;;;;;;6.03;3.93;;;;;;;1.23;100.00;100846.16;5062970;28;20027;-65
2023/03/12 02:49:32;;;;;;;7.50;3.50;;;;;;;1.22;100.00;100849.50;5070190;28;20013;-64
2023/03/12 02:51:59;;;;;;;7.83;3.80;;;;;;;1.22;100.00;100844.41;5070370;28;20025;-64
2023/03/12 02:54:25;;;;;;;5.33;3.30;;;;;;;1.22;100.00;100844.41;5068596;28;20028;-65
2023/03/12 02:56:51;;;;;;;7.23;3.73;;;;;;;1.21;100.00;100845.19;5069819;28;20377;-65
2023/03/12 02:59:19;;;;;;;4.67;3.67;;;;;;;1.19;100.00;100843.41;5069768;28;20016;-64
2023/03/12 03:01:44;;;;;;;6.93;3.83;;;;;;;1.19;100.00;100840.84;5070016;28;20043;-64
2023/03/12 03:04:11;;;;;;;9.83;4.53;;;;;;;1.20;100.00;100831.53;5069594;28;20020;-65
2023/03/12 03:06:39;;;;;;;7.17;4.20;;;;;;;1.21;100.00;100827.31;5056748;28;20025;-65
2023/03/12 03:09:05;;;;;;;7.33;3.77;;;;;;;1.22;100.00;100818.88;5037451;28;20066;-64
2023/03/12 03:11:31;;;;;;;7.23;3.83;;;;;;;1.21;100.00;100825.63;5050819;28;20025;-64
2023/03/12 03:13:56;;;;;;;5.40;3.50;;;;;;;1.22;100.00;100834.19;5069271;28;20059;-64
2023/03/12 03:16:22;;;;;;;5.77;3.77;;;;;;;1.21;100.00;100824.78;5068880;28;20145;-65
2023/03/12 03:18:48;;;;;;;8.80;4.60;;;;;;;1.22;100.00;100823.97;5055810;28;20033;-65
2023/03/12 03:21:15;;;;;;;5.10;3.70;;;;;;;1.23;100.00;100830.84;5069433;28;20078;-64
2023/03/12 03:23:45;;;;;;;5.33;4.03;;;;;;;1.22;100.00;100839.28;5068717;28;20133;-65
2023/03/12 03:26:11;;;;;;;5.63;4.37;;;;;;;1.23;100.00;100834.28;5068807;28;20044;-64
2023/03/12 03:28:36;;;;;;;5.33;3.70;;;;;;;1.25;100.00;100832.72;5068646;28;20475;-65
2023/03/12 03:31:02;;;;;;;6.30;3.90;;;;;;;1.26;100.00;100825.97;5069595;28;20126;-65
2023/03/12 03:33:30;;;;;;;7.43;3.03;;;;;;;1.29;100.00;100824.53;5043812;28;20017;-65
2023/03/12 03:35:58;;;;;;;6.30;3.50;;;;;;;1.33;100.00;100823.06;5056602;28;20027;-65
2023/03/12 03:38:25;;;;;;;7.00;3.60;;;;;;;1.33;100.00;100828.19;5049284;28;20017;-65
2023/03/12 03:40:50;;;;;;;5.83;3.40;;;;;;;1.36;100.00;100817.25;5050320;28;20021;-64
2023/03/12 03:43:15;;;;;;;8.40;3.53;;;;;;;1.38;100.00;100816.59;5050114;28;20151;-64
2023/03/12 03:45:43;;;;;;;3.33;2.87;;;;;;;1.39;100.00;100813.25;5050650;28;20477;-65
2023/03/12 03:48:09;;;;;;;7.90;4.07;;;;;;;1.39;100.00;100808.16;5050102;28;20048;-64
2023/03/12 03:50:36;;;;;;;5.93;3.13;;;;;;;1.39;100.00;100797.94;5050818;28;20065;-65
2023/03/12 03:53:01;;;;;;;5.43;3.40;;;;;;;1.39;100.00;100795.38;5049740;28;20077;-64
2023/03/12 03:55:27;;;;;;;5.93;3.70;;;;;;;1.38;100.00;100785.97;5051385;28;20456;-65
2023/03/12 03:57:52;;;;;;;6.73;3.77;;;;;;;1.38;100.00;100774.84;5050481;28;20079;-64
2023/03/12 04:00:18;;;;;;;5.90;3.60;;;;;;;1.38;100.00;100768.09;5051601;28;20140;-64
2023/03/12 04:02:43;;;;;;;5.07;3.33;;;;;;;1.38;100.00;100764.63;5050298;28;20484;-64
2023/03/12 04:05:09;;;;;;;8.63;3.90;;;;;;;1.36;100.00;100769.63;5051141;28;20043;-65
2023/03/12 04:07:35;;;;;;;5.80;3.67;;;;;;;1.35;100.00;100767.84;5049707;28;20100;-64
2023/03/12 04:10:02;;;;;;;5.73;4.33;;;;;;;1.33;100.00;100777.09;5050654;28;20021;-65
2023/03/12 04:12:28;;;;;;;6.77;3.80;;;;;;;1.33;100.00;100768.53;5057820;28;20439;-64
2023/03/12 04:14:54;;;;;;;5.40;3.57;;;;;;;1.29;100.00;100765.78;5055764;28;20017;-64
2023/03/12 04:17:19;;;;;;;5.17;3.63;;;;;;;1.30;100.00;100764.09;5049045;28;20473;-64
2023/03/12 04:19:44;;;;;;;10.13;4.40;;;;;;;1.29;100.00;100752.13;5048400;28;20029;-64
2023/03/12 04:22:10;;;;;;;5.70;3.40;;;;;;;1.26;100.00;100745.13;5048960;28;20025;-65
2023/03/12 04:24:35;;;;;;;7.97;3.97;;;;;;;1.26;100.00;100744.25;5049769;28;20440;-64
2023/03/12 04:27:00;;;;;;;6.77;4.00;;;;;;;1.25;100.00;100745.03;5049434;28;20044;-65
2023/03/12 04:29:26;;;;;;;6.47;3.60;;;;;;;1.23;100.00;100724.50;5050451;28;20100;-64
2023/03/12 04:31:51;;;;;;;8.00;3.77;;;;;;;1.26;100.00;100723.84;5049295;28;20450;-65
2023/03/12 04:34:16;;;;;;;4.90;3.53;;;;;;;1.26;100.00;100724.69;5049835;28;20033;-65
2023/03/12 04:36:42;;;;;;;6.70;4.27;;;;;;;1.27;100.00;100710.28;5049756;28;20388;-65
2023/03/12 04:39:08;;;;;;;6.90;4.20;;;;;;;1.26;100.00;100708.50;5050535;28;20033;-64
2023/03/12 04:41:34;;;;;;;5.47;3.63;;;;;;;1.25;100.00;100707.63;5049728;28;20016;-64
2023/03/12 04:43:59;;;;;;;7.97;3.67;;;;;;;1.27;100.00;100705.16;5050133;28;20025;-65
2023/03/12 04:46:25;;;;;;;7.90;3.63;;;;;;;1.27;100.00;100700.06;5048620;28;20021;-64
2023/03/12 04:48:50;;;;;;;4.57;3.37;;;;;;;1.28;100.00;100706.91;5048642;28;20029;-64
2023/03/12 04:51:15;;;;;;;5.00;3.50;;;;;;;1.28;100.00;100712.03;5049395;28;20024;-65
2023/03/12 04:53:41;;;;;;;8.97;3.30;;;;;;;1.29;100.00;100709.59;5048822;28;20451;-64
2023/03/12 04:56:06;;;;;;;7.80;3.83;;;;;;;1.34;100.00;100704.81;5049046;28;20021;-64
2023/03/12 04:58:31;;;;;;;11.43;4.33;;;;;;;1.33;100.00;100697.03;5048916;28;20021;-64
2023/03/12 05:00:57;;;;;;;5.50;3.00;;;;;;;1.31;100.00;100694.38;5049067;28;20112;-64
2023/03/12 05:03:22;;;;;;;8.27;3.77;;;;;;;1.32;100.00;100696.16;5048321;28;20359;-65
2023/03/12 05:05:47;;;;;;;5.87;3.70;;;;;;;1.34;100.00;100692.03;5049062;28;20029;-65
2023/03/12 05:08:13;;;;;;;5.60;3.33;;;;;;;1.33;100.00;100686.81;5049129;28;20020;-65
2023/03/12 05:10:38;;;;;;;7.83;3.70;;;;;;;1.34;100.00;100679.25;5048570;28;20021;-64
2023/03/12 05:13:12;;;;;;;6.93;3.27;;;;;;;1.34;100.00;100679.25;5060790;28;20036;-64
2023/03/12 05:15:37;;;;;;;6.70;3.47;;;;;;;1.36;100.00;100672.59;5034663;28;20148;-65
2023/03/12 05:18:03;;;;;;;5.37;2.90;;;;;;;1.38;100.00;100655.72;5048310;28;20529;-64
2023/03/12 05:20:28;;;;;;;5.43;3.20;;;;;;;1.38;100.00;100663.38;5048112;28;20109;-65
2023/03/12 05:22:53;;;;;;;11.00;3.57;;;;;;;1.39;100.00;100667.69;5048127;28;20592;-65
2023/03/12 05:25:18;;;;;;;6.37;3.07;;;;;;;1.42;100.00;100665.31;5047911;28;20017;-65
2023/03/12 05:27:44;;;;;;;4.47;3.13;;;;;;;1.46;100.00;100660.44;5047354;28;20025;-65
2023/03/12 05:30:10;;;;;;;5.40;3.50;;;;;;;1.44;100.00;100663.75;5047580;28;20048;-65
2023/03/12 05:32:35;;;;;;;5.83;3.33;;;;;;;1.46;100.00;100668.09;5047424;28;20021;-64
2023/03/12 05:35:00;;;;;;;7.63;3.53;;;;;;;1.48;100.00;100652.09;5047621;28;20052;-65
2023/03/12 05:37:26;;;;;;;6.10;3.50;;;;;;;1.49;100.00;100645.31;5047953;28;20108;-65
2023/03/12 05:39:53;;;;;;;5.47;3.60;;;;;;;1.48;100.00;100648.63;5048208;28;20029;-64
2023/03/12 05:42:18;;;;;;;6.50;3.83;;;;;;;1.47;100.00;100650.31;5048574;28;20530;-64
2023/03/12 05:44:43;;;;;;;9.00;3.63;;;;;;;1.51;100.00;100659.06;5048051;28;20017;-65
2023/03/12 05:47:09;;;;;;;5.87;3.60;;;;;;;1.49;100.00;100663.19;5047184;28;20112;-65
2023/03/12 05:49:34;;;;;;;11.37;3.67;;;;;;;1.49;100.00;100647.88;5048397;28;20091;-65
2023/03/12 05:52:00;;;;;;;5.23;3.37;;;;;;;1.48;100.00;100649.53;5048271;28;20048;-65
2023/03/12 05:54:25;;;;;;;7.83;4.00;;;;;;;1.48;100.00;100649.53;5048216;28;20096;-65
2023/03/12 05:56:51;;;;;;;8.03;3.97;;;;;;;1.49;100.00;100651.31;5047140;28;20398;-65
2023/03/12 05:59:17;;;;;;;5.13;3.50;;;;;;;1.50;100.00;100653.06;5046176;28;20021;-65
2023/03/12 06:01:42;;;;;;;9.20;4.10;;;;;;;1.49;100.00;100646.22;5046737;28;20021;-65
2023/03/12 06:04:07;;;;;;;6.43;4.30;;;;;;;1.55;100.00;100640.59;5045895;28;20111;-64
2023/03/12 06:06:35;;;;;;;8.90;4.07;;;;;;;1.55;100.00;100645.69;5045558;28;20029;-64
2023/03/12 06:09:02;;;;;;;6.27;4.20;;;;;;;1.55;100.00;100640.59;5045407;28;20373;-65
2023/03/12 06:11:28;;;;;;;12.43;4.97;;;;;;;1.57;100.00;100639.03;5033572;28;20033;-65
2023/03/12 06:13:55;;;;;;;7.40;4.07;;;;;;;1.61;100.00;100651.22;5053188;28;20357;-64
2023/03/12 06:16:24;;;;;;;6.90;4.37;;;;;;;1.61;100.00;100658.88;5063796;28;20140;-65
2023/03/12 06:18:54;;;;;;;7.27;4.77;;;;;;;1.64;100.00;100656.53;5051808;28;20018;-64
2023/03/12 06:21:23;;;;;;;14.77;5.20;;;;;;;1.65;100.00;100653.22;5039098;28;20025;-64
2023/03/12 06:23:49;;;;;;;6.80;4.50;;;;;;;1.68;100.00;100665.28;5066647;28;20020;-65
2023/03/12 06:26:15;;;;;;;9.83;4.80;;;;;;;1.68;100.00;100663.63;5065850;28;20028;-65
2023/03/12 06:28:41;;;;;;;8.57;4.90;;;;;;;1.72;100.00;100668.91;5066882;28;20020;-65
2023/03/12 06:31:08;;;;;;;10.63;4.87;;;;;;;1.73;100.00;100661.34;5065507;28;20043;-65
2023/03/12 06:33:33;;;;;;;9.50;5.80;;;;;;;1.75;100.00;100664.00;5065187;28;20115;-65
2023/03/12 06:36:01;;;;;;;9.17;4.60;;;;;;;1.75;100.00;100659.78;5064996;28;20111;-65
2023/03/12 06:38:27;;;;;;;5.73;4.83;;;;;;;1.76;100.00;100642.78;5066113;28;20107;-65
2023/03/12 06:41:05;;;;;;;8.47;5.67;;;;;;;1.79;100.00;100636.22;5066492;28;20389;-65
2023/03/12 06:43:32;;;;;;;6.03;4.80;;;;;;;1.79;100.00;100636.22;5047018;28;20075;-65
2023/03/12 06:45:59;;;;;;;11.20;5.10;;;;;;;1.80;100.00;100637.06;5047240;28;20024;-65
2023/03/12 06:48:25;;;;;;;8.17;5.77;;;;;;;1.78;100.00;100636.13;5029674;28;20028;-64
2023/03/12 06:50:51;;;;;;;11.53;5.83;;;;;;;1.78;100.00;100625.91;5026775;28;20028;-65
2023/03/12 06:53:17;;;;;;;10.17;6.07;;;;;;;1.79;100.00;100623.44;5026516;28;20049;-65
2023/03/12 06:55:44;;;;;;;6.90;5.80;;;;;;;1.80;100.00;100617.53;5032625;28;20060;-64
2023/03/12 06:58:10;;;;;;;7.70;6.20;;;;;;;1.81;100.00;100613.31;5031903;28;20529;-65
2023/03/12 07:00:35;;;;;;;9.70;6.47;;;;;;;1.82;100.00;100609.94;5031633;28;20098;-65
2023/03/12 07:03:01;;;;;;;8.53;6.30;;;;;;;1.83;100.00;100619.41;5037065;28;20113;-65
2023/03/12 07:05:27;;;;;;;10.60;6.60;;;;;;;1.83;100.00;100611.75;5038476;28;20492;-64
2023/03/12 07:07:52;;;;;;;9.50;6.30;;;;;;;1.83;100.00;100605.72;5035603;28;20543;-65
2023/03/12 07:10:18;;;;;;;8.20;5.80;;;;;;;1.83;100.00;100614.28;5034382;28;20351;-65
2023/03/12 07:12:44;;;;;;;9.43;6.77;;;;;;;1.80;100.00;100609.84;5049535;28;20148;-65
2023/03/12 07:15:10;;;;;;;11.80;6.63;;;;;;;1.82;100.00;100603.97;5059246;28;20064;-65
2023/03/12 07:17:35;;;;;;;10.43;7.33;;;;;;;1.84;100.00;100608.38;5046315;28;20064;-65
2023/03/12 07:20:01;;;;;;;10.37;6.30;;;;;;;1.85;100.00;100620.41;5060239;28;20082;-65
2023/03/12 07:22:27;;;;;;;10.93;7.67;;;;;;;1.88;100.00;100606.91;5046371;28;20017;-65
2023/03/12 07:24:52;;;;;;;10.70;7.20;;;;;;;1.88;100.00;100606.91;5037449;28;20032;-64
2023/03/12 07:27:18;;;;;;;12.07;7.43;;;;;;;1.87;100.00;100613.69;5040205;28;20059;-65
2023/03/12 07:29:43;;;;;;;9.63;7.37;;;;;;;1.89;100.00;100613.81;5045689;28;20040;-64
2023/03/12 07:32:08;;;;;;;9.77;7.33;;;;;;;1.90;100.00;100619.00;5046025;28;20036;-65
2023/03/12 07:34:34;;;;;;;13.13;8.63;;;;;;;1.90;100.00;100613.91;5038721;28;20090;-64
2023/03/12 07:37:00;;;;;;;9.53;7.90;;;;;;;1.94;100.00;100620.09;5040203;28;20036;-64
2023/03/12 07:39:25;;;;;;;10.73;7.57;;;;;;;1.97;100.00;100617.72;5043790;28;20401;-65
2023/03/12 07:41:51;;;;;;;11.37;8.00;;;;;;;2.00;100.00;100620.47;5048014;28;20109;-65
2023/03/12 07:44:16;;;;;;;11.90;8.60;;;;;;;2.00;100.00;100610.25;5050800;28;20065;-65
2023/03/12 07:46:42;;;;;;;13.03;9.27;;;;;;;2.02;100.00;100628.22;5050502;28;20147;-65
2023/03/12 07:49:07;;;;;;;13.50;8.30;;;;;;;2.01;100.00;100609.47;5052573;28;20028;-65
2023/03/12 07:51:32;;;;;;;12.40;8.00;;;;;;;2.02;100.00;100616.34;5058713;28;20055;-65
2023/03/12 07:53:58;;;;;;;12.03;9.27;;;;;;;2.04;100.00;100621.53;5047648;28;20057;-65
2023/03/12 07:56:23;;;;;;;11.67;9.10;;;;;;;2.08;100.00;100613.28;5056716;28;20035;-65
2023/03/12 07:58:48;;;;;;;12.33;9.87;;;;;;;2.10;100.00;100614.28;5050067;28;20051;-65
2023/03/12 08:01:14;;;;;;;13.27;9.50;;;;;;;2.12;100.00;100612.66;5044059;28;20795;-65
2023/03/12 08:03:39;;;;;;;12.17;10.97;;;;;;;2.11;100.00;100610.91;5039760;28;20080;-65
2023/03/12 08:06:05;;;;;;;14.10;12.17;;;;;;;2.13;100.00;100618.69;5034942;28;20130;-65
2023/03/12 08:08:31;;;;;;;18.03;12.53;;;;;;;2.18;100.00;100604.50;5035820;28;20472;-65
2023/03/12 08:10:57;;;;;;;14.73;12.63;;;;;;;2.23;100.00;100613.34;5040350;28;20371;-65
2023/03/12 08:13:23;;;;;;;15.97;13.77;;;;;;;2.27;100.00;100614.41;5050367;28;20112;-65
2023/03/12 08:15:50;;;;;;;16.07;13.33;;;;;;;2.32;100.00;100597.69;5054531;28;20029;-65
2023/03/12 08:18:17;;;;;;;19.00;13.50;;;;;;;2.38;100.00;100598.06;5037966;28;20086;-65
2023/03/12 08:20:43;;;;;;;17.87;13.30;;;;;;;2.41;100.00;100610.19;5039179;28;20567;-65
2023/03/12 08:23:08;;;;;;;15.30;13.37;;;;;;;2.43;100.00;100620.50;5036381;28;20109;-65
2023/03/12 08:25:35;;;;;;;15.33;13.73;;;;;;;2.48;100.00;100608.88;5041249;28;20036;-65
2023/03/12 08:28:02;;;;;;;16.47;13.13;;;;;;;2.53;100.00;100615.16;5048339;28;20029;-65
2023/03/12 08:30:28;;;;;;;15.93;13.53;;;;;;;2.59;100.00;100612.97;5053574;28;20119;-65
2023/03/12 08:32:53;;;;;;;17.13;12.87;;;;;;;2.64;100.00;100616.69;5037721;28;20033;-65
2023/03/12 08:35:19;;;;;;;17.87;13.33;;;;;;;2.67;100.00;100616.00;5039465;28;20496;-65
2023/03/12 08:37:44;;;;;;;17.20;13.33;;;;;;;2.73;100.00;100623.16;5056123;28;20035;-65
2023/03/12 08:40:12;;;;;;;16.53;13.20;;;;;;;2.78;100.00;100629.44;5049535;28;20052;-65
2023/03/12 08:42:42;;;;;;;15.80;14.20;;;;;;;2.84;100.00;100636.63;5030140;28;20455;-65
2023/03/12 08:45:09;;;;;;;18.20;13.47;;;;;;;2.86;100.00;100628.22;5037637;28;20071;-65
2023/03/12 08:47:35;;;;;;;17.03;13.37;;;;;;;2.98;100.00;100633.22;5037527;28;20026;-65
2023/03/12 08:50:00;;;;;;;16.03;14.03;;;;;;;3.00;100.00;100639.28;5048885;28;20491;-65
2023/03/12 08:52:26;;;;;;;14.57;13.07;;;;;;;3.03;100.00;100638.59;5057350;28;20045;-65
2023/03/12 08:54:52;;;;;;;15.87;13.63;;;;;;;3.15;100.00;100638.44;5050065;28;20044;-65
2023/03/12 08:57:18;;;;;;;15.67;13.87;;;;;;;3.20;100.00;100649.81;5044023;28;20029;-65
2023/03/12 08:59:43;;;;;;;14.83;13.00;;;;;;;3.27;100.00;100651.09;5039694;28;20389;-65
2023/03/12 09:02:11;;;;;;;16.27;13.43;;;;;;;3.36;100.00;100646.47;5053287;28;20467;-65
2023/03/12 09:04:36;;;;;;;17.10;13.73;;;;;;;3.41;100.00;100648.44;5064419;28;20028;-64
2023/03/12 09:07:02;;;;;;;19.27;15.43;;;;;;;3.48;100.00;100646.34;5065594;28;20089;-65
2023/03/12 09:09:27;;;;;;;18.80;15.23;;;;;;;3.53;100.00;100644.03;5065180;28;20078;-65
2023/03/12 09:11:53;;;;;;;20.73;17.77;;;;;;;3.62;100.00;100642.81;5066756;28;20024;-65
2023/03/12 09:14:18;;;;;;;25.50;17.43;;;;;;;3.71;100.00;100649.31;5067202;28;20052;-65
2023/03/12 09:16:44;;;;;;;29.20;19.80;;;;;;;3.82;100.00;100642.25;5065514;28;20035;-65
2023/03/12 09:19:09;;;;;;;28.17;20.23;;;;;;;3.91;100.00;100643.53;5066503;28;20078;-65
2023/03/12 09:21:34;;;;;;;27.93;20.60;;;;;;;4.01;100.00;100643.25;5066497;28;20031;-64
2023/03/12 09:24:00;;;;;;;30.70;20.30;;;;;;;4.09;100.00;100643.69;5066381;28;20063;-65
2023/03/12 09:26:25;;;;;;;28.33;20.37;;;;;;;4.19;100.00;100642.53;5066186;28;20042;-65
2023/03/12 09:28:50;;;;;;;30.33;22.57;;;;;;;4.29;100.00;100634.53;5067357;28;20025;-65
2023/03/12 09:31:16;;;;;;;31.27;23.17;;;;;;;4.42;100.00;100635.19;5066830;28;20029;-65
2023/03/12 09:33:41;;;;;;;32.23;23.07;;;;;;;4.54;100.00;100646.13;5067639;28;20029;-65
2023/03/12 09:36:07;;;;;;;33.30;23.07;;;;;;;4.62;100.00;100640.50;5067136;28;20038;-65
2023/03/12 09:38:34;;;;;;;34.95;22.63;;;;;;;4.68;100.00;100643.38;5067444;28;20024;-65
2023/03/12 09:41:01;;;;;;;27.70;21.97;;;;;;;4.73;100.00;100634.25;5065718;28;20040;-65
2023/03/12 09:43:39;;;;;;;32.17;22.90;;;;;;;4.83;100.00;100639.88;5056164;28;20199;-66
2023/03/12 09:46:13;;;;;;;26.52;21.77;;;;;;;4.90;100.00;100645.41;5067013;28;20483;-65
2023/03/12 09:48:39;;;;;;;30.42;23.33;;;;;;;4.96;100.00;100651.66;5055788;28;20032;-65
2023/03/12 09:51:18;;;;;;;30.63;22.70;;;;;;;5.03;100.00;100652.06;5047580;28;20024;-65
2023/03/12 09:53:49;;;;;;;29.88;22.58;;;;;;;5.10;100.00;100662.66;5060278;28;20044;-65
2023/03/12 09:56:21;;;;;;;32.13;23.45;;;;;;;5.16;100.00;100665.56;5042032;28;20093;-65
2023/03/12 09:58:47;;;;;;;;;;;;;;;5.22;100.00;100668.41;5054158;28;20773;-65
2023/03/12 10:01:30;;;;;;;28.60;22.65;;;;;;;5.31;100.00;100667.16;5066422;28;19936;-65
2023/03/12 10:03:55;;;;;;;34.42;24.02;;;;;;;5.40;100.00;100683.91;5066510;28;20017;-65
2023/03/12 10:06:28;;;;;;;30.73;23.90;;;;;;;5.44;100.00;100668.63;5066835;28;20414;-65
2023/03/12 10:09:24;;;;;;;33.65;25.52;;;;;;;5.49;100.00;100667.16;5063010;28;20009;-65
2023/03/12 10:12:02;;;;;;;33.22;25.15;;;;;;;5.55;100.00;100672.63;5062540;28;20048;-66
2023/03/12 10:14:54;;;;;;;30.33;24.10;;;;;;;5.59;100.00;100674.56;5056530;28;20061;-65
2023/03/12 10:17:31;;;;;;;33.03;25.10;;;;;;;5.69;100.00;100674.97;5048168;28;20017;-65
2023/03/12 10:20:13;;;;;;;31.85;25.38;;;;;;;5.74;100.00;100674.41;5047878;28;20534;-66
2023/03/12 10:23:03;;;;;;;30.85;25.00;;;;;;;5.85;100.00;100674.03;5047934;28;20052;-66
2023/03/12 10:25:37;;;;;;;36.72;26.10;;;;;;;5.92;100.00;100670.97;5047432;28;20025;-65
2023/03/12 10:28:30;;;;;;;34.13;26.30;;;;;;;5.99;100.00;100669.59;5048010;28;20032;-66
2023/03/12 10:31:00;;;;;;;35.30;24.70;;;;;;;6.01;100.00;100668.84;5049985;28;20024;-65
2023/03/12 10:33:39;;;;;;;36.78;24.73;;;;;;;6.05;100.00;100666.41;5057244;28;20008;-66
2023/03/12 10:36:32;;;;;;;34.30;25.35;;;;;;;6.09;100.00;100670.94;5056027;28;20060;-65
2023/03/12 10:38:58;;;;;;;35.45;23.73;;;;;;;6.10;100.00;100675.25;5050928;28;20025;-66
2023/03/12 10:41:28;;;;;;;36.72;24.80;;;;;;;6.13;100.00;100667.72;5068840;28;20047;-65
2023/03/12 10:43:57;;;;;;;39.90;27.00;;;;;;;6.18;100.00;100679.09;5070024;28;20075;-65
2023/03/12 10:46:35;;;;;;;41.67;24.83;;;;;;;6.24;100.00;100670.78;5069119;28;20039;-66
2023/03/12 10:49:20;;;;;;;40.50;26.25;;;;;;;6.30;100.00;100665.03;5067733;28;20020;-65
2023/03/12 10:51:57;;;;;;;42.70;27.33;;;;;;;6.38;100.00;100663.72;5068867;28;20041;-65
2023/03/12 10:54:30;;;;;;;45.78;27.88;;;;;;;6.52;100.00;100666.03;5066752;28;20028;-66
2023/03/12 10:56:56;;;;;;;45.70;26.65;;;;;;;6.60;100.00;100651.81;5069111;28;20431;-66
2023/03/12 10:59:26;;;;;;;41.58;26.75;;;;;;;6.71;100.00;100668.63;5069862;28;20056;-66
2023/03/12 11:01:52;;;;;;;48.28;27.80;;;;;;;6.77;100.00;100668.03;5068628;28;20024;-66
2023/03/12 11:04:22;;;;;;;43.85;25.95;;;;;;;6.89;100.00;100670.25;5070182;28;20020;-66
2023/03/12 11:07:05;;;;;;;43.47;26.02;;;;;;;7.01;100.00;100667.38;5069071;28;20412;-65
2023/03/12 11:09:31;;;;;;;39.22;24.50;;;;;;;7.14;100.00;100663.59;5069464;28;20016;-65
2023/03/12 11:11:56;;;;;;;39.95;23.73;;;;;;;7.23;100.00;100670.88;5068958;28;20013;-65
2023/03/12 11:14:25;;;;;;;40.15;23.10;;;;;;;7.30;100.00;100679.75;5070510;28;20028;-66
2023/03/12 11:16:51;;;;;;;38.03;22.33;;;;;;;7.38;100.00;100680.06;5069306;28;20024;-65
2023/03/12 11:19:29;;;;;;;46.53;23.77;;;;;;;7.44;100.00;100678.66;5069764;28;20493;-65
2023/03/12 11:22:03;;;;;;;31.38;22.00;;;;;;;7.53;100.00;100682.41;5069124;28;20423;-66
2023/03/12 11:24:29;;;;;;;36.47;20.50;;;;;;;7.58;100.00;100686.06;5069790;28;20492;-66